Latest Weather Observations for Mount Nowa Nowa

IDV60801

Issued at 11:31 pm EDT Friday 19 December 2014 (issued every 30 minutes, with the page automatically refreshed every 10 minutes)

About weather observations | Map of weather stations | Latest weather observations for VIC | Other Formats
Station Details ID: 084144 Name: MOUNT NOWA NOWA Lat: -37.69 Lon: 148.09 Height: 350.0 m
Data from the previous 72 hours. | See also: Recent months at Mount Nowa Nowa
Date/Time
EDT
Temp
°C
App
Temp
°C
Dew
Point
Rel
Hum
%
Delta-T
°C
Wind Press
QNH
hPa
Press
MSL
hPa
Rain
since 9 am
mm
Dir
 
Spd
km/h
Gust
km/h
Spd
kts
Gust
kts
19/11:30pm 11.1 9.3 8.1 82 1.5 NNW 7 11 4 6 - - 0.0
19/11:00pm 11.2 9.6 8.1 81 1.5 NNW 6 7 3 4 - - 0.0
19/10:30pm 11.2 10.4 8.1 81 1.5 NNW 2 6 1 3 - - 0.0
19/10:00pm 11.6 11.2 8.1 79 1.7 CALM 0 2 0 1 - - 0.0
19/09:30pm 11.5 11.1 8.2 80 1.6 CALM 0 0 0 0 - - 0.0
19/09:00pm 11.5 10.7 8.2 80 1.6 S 2 6 1 3 - - 0.0
19/08:30pm 11.9 10.7 8.2 78 1.9 S 4 6 2 3 - - 0.0
19/08:00pm 12.8 11.7 8.5 75 2.2 S 4 7 2 4 - - 0.0
19/07:30pm 13.0 11.5 8.5 74 2.3 S 6 13 3 7 - - 0.0
19/07:00pm 13.3 11.8 8.6 73 2.4 S 6 15 3 8 - - 0.0
19/06:30pm 13.8 12.1 8.2 69 2.8 S 7 17 4 9 - - 0.0
19/06:00pm 14.2 12.6 8.6 69 2.9 SSW 7 15 4 8 - - 0.0
19/05:30pm 14.3 12.9 9.5 73 2.5 S 7 17 4 9 - - 0.0
19/05:00pm 15.7 14.5 9.6 67 3.2 S 6 13 3 7 - - 0.0
19/04:30pm 13.6 11.1 8.4 71 2.6 SSW 11 22 6 12 - - 0.0
19/04:00pm 14.9 13.3 8.6 66 3.2 S 7 19 4 10 - - 0.0
19/03:30pm 15.2 13.9 9.3 68 3.1 SW 6 13 3 7 - - 0.0
19/03:00pm 14.1 12.2 9.1 72 2.6 SSW 9 19 5 10 - - 0.0
19/02:30pm 15.4 14.0 9.7 69 3.0 W 7 13 4 7 - - 0.0
19/02:00pm 13.2 11.8 8.9 75 2.2 WSW 6 11 3 6 - - 0.0
19/01:30pm 12.3 11.0 9.1 81 1.6 WSW 6 13 3 7 - - 0.0
19/01:00pm 13.8 12.7 8.4 70 2.8 W 4 15 2 8 - - 0.0
19/12:30pm 13.3 11.6 8.2 71 2.6 W 7 15 4 8 - - 0.0
19/12:00pm 13.4 10.9 8.3 71 2.6 W 11 20 6 11 - - 0.0
19/11:30am 13.1 10.6 8.4 73 2.4 W 11 19 6 10 - - 0.0
19/11:00am 15.1 13.1 8.8 66 3.3 WSW 9 20 5 11 - - 0.0
19/10:30am 13.1 10.9 7.8 70 2.7 WSW 9 28 5 15 - - 0.0
19/10:00am 13.7 11.5 7.7 67 3.0 WSW 9 19 5 10 - - 0.0
19/09:30am 12.7 10.6 8.2 74 2.3 W 9 19 5 10 - - 0.0
19/09:00am 12.4 9.9 8.3 76 2.1 W 11 24 6 13 - - 7.8
19/08:30am 11.6 9.6 8.6 82 1.5 W 9 20 5 11 - - 7.8
19/08:00am 10.8 8.7 8.4 85 1.2 W 9 19 5 10 - - 7.8
19/07:30am 10.2 8.0 8.0 86 1.1 W 9 24 5 13 - - 7.8
19/07:00am 9.7 7.1 7.6 87 1.0 W 11 22 6 12 - - 7.8
19/06:30am 9.2 6.5 7.5 89 0.8 W 11 22 6 12 - - 7.8
19/06:00am 9.3 6.7 7.7 90 0.8 W 11 20 6 11 - - 7.8
19/05:30am 9.2 6.2 7.8 91 0.7 W 13 20 7 11 - - 7.8
19/05:00am 9.4 6.4 7.8 90 0.8 W 13 24 7 13 - - 7.8
19/04:30am 9.5 6.5 7.9 90 0.8 W 13 24 7 13 - - 7.8
19/04:00am 9.6 7.1 8.2 91 0.7 W 11 20 6 11 - - 7.6
19/03:30am 9.6 7.1 8.4 92 0.6 W 11 20 6 11 - - 7.6
19/03:00am 9.9 7.2 8.8 93 0.6 W 13 26 7 14 - - 7.6
19/02:30am 10.1 7.5 9.2 94 0.5 WSW 13 24 7 13 - - 7.6
19/02:00am 10.2 8.1 9.6 96 0.3 W 11 28 6 15 - - 7.6
19/01:30am 10.6 9.0 10.3 98 0.2 W 9 20 5 11 - - 7.6
19/01:00am 10.8 9.7 10.5 98 0.2 W 7 11 4 6 - - 7.6
19/12:30am 10.8 9.7 10.5 98 0.2 W 7 13 4 7 - - 7.6
19/12:00am 10.9 9.4 10.6 98 0.2 W 9 15 5 8 - - 7.6
 
Date/Time
EDT
Temp
°C
App
Temp
°C
Dew
Point
Rel
Hum
%
Delta-T
°C
Wind Press
QNH
hPa
Press
MSL
hPa
Rain
since 9 am
mm
Dir
 
Spd
km/h
Gust
km/h
Spd
kts
Gust
kts
18/11:30pm 11.1 10.0 10.8 98 0.2 W 7 17 4 9 - - 7.4
18/11:00pm 11.1 10.2 10.8 98 0.2 W 6 15 3 8 - - 7.4
18/10:30pm 11.2 10.4 10.9 98 0.2 NW 6 9 3 5 - - 6.6
18/10:00pm 11.3 10.5 11.0 98 0.2 W 6 9 3 5 - - 4.4
18/09:30pm 11.1 10.2 10.6 97 0.3 W 6 13 3 7 - - 4.0
18/09:00pm 11.3 9.9 10.8 97 0.3 WSW 9 19 5 10 - - 3.8
18/08:30pm 11.6 9.0 10.7 94 0.5 WSW 15 32 8 17 - - 3.2
18/08:00pm 14.7 13.3 9.7 72 2.6 SW 7 17 4 9 - - 0.0
18/07:30pm 14.8 13.4 9.4 70 2.8 S 7 15 4 8 - - 0.0
18/07:00pm 15.9 14.7 9.6 66 3.3 S 6 17 3 9 - - 0.0
18/06:30pm 17.1 14.5 9.3 60 4.1 S 13 24 7 13 - - 0.0
18/06:00pm 17.5 14.9 9.4 59 4.3 SSW 13 32 7 17 - - 0.0
18/05:30pm 17.4 14.8 10.8 65 3.6 S 15 33 8 18 - - 0.0
18/05:00pm 17.4 14.3 10.3 63 3.8 S 17 35 9 19 - - 0.0
18/04:30pm 21.9 20.5 8.8 43 7.1 ESE 6 11 3 6 - - 0.0
18/04:00pm 21.9 19.9 7.3 39 7.7 ESE 7 13 4 7 - - 0.0
18/03:30pm 22.2 20.6 8.7 42 7.3 ESE 7 11 4 6 - - 0.0
18/03:00pm 21.9 19.6 7.3 39 7.7 SSE 9 17 5 9 - - 0.0
18/02:30pm 24.6 23.4 8.1 35 8.9 ENE 4 11 2 6 - - 0.0
18/02:00pm 24.6 23.5 8.5 36 8.8 NW 4 9 2 5 - - 0.0
18/01:30pm 25.4 23.5 7.5 32 9.6 NW 7 15 4 8 - - 0.0
18/01:00pm 23.9 21.9 7.1 34 8.9 NW 7 17 4 9 - - 0.0
18/12:30pm 23.4 21.5 6.7 34 8.7 NW 6 13 3 7 - - 0.0
18/12:00pm 23.4 21.6 7.1 35 8.6 NNW 6 11 3 6 - - 0.0
18/11:30am 22.2 20.0 6.0 35 8.3 NW 7 15 4 8 - - 0.0
18/11:00am 21.8 19.5 7.6 40 7.5 NNW 9 15 5 8 - - 0.0
18/10:30am 20.8 19.1 8.4 45 6.6 NW 7 19 4 10 - - 0.0
18/10:00am 19.5 17.3 9.4 52 5.4 NNW 11 20 6 11 - - 0.0
18/09:30am 17.9 15.9 10.0 60 4.3 NNW 11 17 6 9 - - 0.0
18/09:00am 16.2 13.7 9.6 65 3.5 NNW 13 24 7 13 - - 0.0
18/08:30am 15.2 12.2 9.1 67 3.2 NNW 15 26 8 14 - - 0.0
18/08:00am 14.0 10.6 9.0 72 2.6 N 17 28 9 15 - - 0.0
18/07:30am 13.0 9.5 8.7 75 2.2 NNW 17 32 9 17 - - 0.0
18/07:00am 12.4 7.8 8.3 76 2.1 N 22 32 12 17 - - 0.0
18/06:30am 11.7 7.1 8.2 79 1.8 NNW 22 33 12 18 - - 0.0
18/06:00am 11.4 7.2 8.3 81 1.6 NNW 20 35 11 19 - - 0.0
18/05:30am 11.1 7.4 8.1 82 1.5 NNW 17 26 9 14 - - 0.0
18/05:00am 10.8 7.9 8.2 84 1.3 N 13 20 7 11 - - 0.0
18/04:30am 11.1 9.9 8.1 82 1.5 NE 4 11 2 6 - - 0.0
18/04:00am 11.5 9.3 8.0 79 1.7 ENE 9 15 5 8 - - 0.0
18/03:30am 11.1 9.0 8.1 82 1.5 E 9 17 5 9 - - 0.0
18/03:00am 11.1 8.7 8.5 84 1.3 E 11 17 6 9 - - 0.0
18/02:30am 11.2 9.6 8.8 85 1.2 E 7 11 4 6 - - 0.0
18/02:00am 11.8 10.5 9.2 84 1.3 E 6 9 3 5 - - 0.0
18/01:30am 11.9 10.6 9.1 83 1.4 E 6 7 3 4 - - 0.0
18/01:00am 12.1 11.1 8.9 81 1.6 E 4 7 2 4 - - 0.0
18/12:30am 12.1 10.6 8.6 79 1.8 E 6 11 3 6 - - 0.0
18/12:00am 12.1 10.5 8.8 80 1.7 E 7 11 4 6 - - 0.0
 
Date/Time
EDT
Temp
°C
App
Temp
°C
Dew
Point
Rel
Hum
%
Delta-T
°C
Wind Press
QNH
hPa
Press
MSL
hPa
Rain
since 9 am
mm
Dir
 
Spd
km/h
Gust
km/h
Spd
kts
Gust
kts
17/11:30pm 12.1 10.6 8.6 79 1.8 E 6 11 3 6 - - 0.0
17/11:00pm 12.2 11.1 8.5 78 1.9 E 4 9 2 5 - - 0.0
17/10:30pm 12.0 11.0 8.7 80 1.7 ESE 4 7 2 4 - - 0.0
17/10:00pm 11.9 10.5 8.7 81 1.6 ESE 6 6 3 3 - - 0.0
17/09:30pm 12.1 11.0 8.6 79 1.8 E 4 6 2 3 - - 0.0
17/09:00pm 12.1 11.3 8.2 77 2.0 ESE 2 4 1 2 - - 0.0
17/08:30pm 12.3 11.5 8.2 76 2.1 ESE 2 6 1 3 - - 0.0
17/08:00pm 12.8 11.2 8.1 73 2.4 E 6 15 3 8 - - 0.0
17/07:30pm 13.4 12.2 8.0 70 2.7 SE 4 13 2 7 - - 0.0
17/07:00pm 13.8 12.3 8.4 70 2.8 SE 6 13 3 7 - - 0.0
17/06:30pm 15.2 14.2 8.7 65 3.4 SE 4 9 2 5 - - 0.0
17/06:00pm 15.1 12.5 7.9 62 3.7 SSE 11 20 6 11 - - 0.0
17/05:30pm 16.0 13.8 8.0 59 4.1 SSE 9 22 5 12 - - 0.0
17/05:00pm 16.4 14.5 7.6 56 4.5 SSE 7 15 4 8 - - 0.0
17/04:30pm 16.4 14.3 8.1 58 4.3 SSE 9 19 5 10 - - 0.0
17/04:00pm 16.3 13.8 8.3 59 4.1 SSE 11 20 6 11 - - 0.0
17/03:30pm 17.5 15.7 9.4 59 4.3 SSE 9 20 5 11 - - 0.0
17/03:00pm 17.3 15.8 9.0 58 4.4 SSE 7 19 4 10 - - 0.0
17/02:30pm 16.3 14.5 7.8 57 4.4 SW 7 30 4 16 - - 0.0
17/02:00pm 15.6 14.1 8.4 62 3.7 SSE 6 13 3 7 - - 0.0
17/01:30pm 15.8 14.2 7.8 59 4.1 SSW 6 13 3 7 - - 0.0
17/01:00pm 15.9 14.7 6.3 53 4.8 SSW 2 9 1 5 - - 0.0
17/12:30pm 15.3 13.3 7.1 58 4.1 W 7 13 4 7 - - 0.0
17/12:00pm 14.9 12.8 6.7 58 4.1 WSW 7 17 4 9 - - 0.0
17/11:30am 15.9 14.0 6.6 54 4.6 WSW 6 15 3 8 - - 0.0
17/11:00am 15.3 13.2 6.6 56 4.3 W 7 17 4 9 - - 0.0
17/10:30am 15.2 13.0 6.0 54 4.5 WSW 7 17 4 9 - - 0.0
17/10:00am 14.2 12.2 6.1 58 3.9 W 6 15 3 8 - - 0.0
17/09:30am 14.0 11.3 5.4 56 4.1 WSW 9 20 5 11 - - 0.0
17/09:00am 13.1 10.1 6.0 62 3.4 W 11 24 6 13 - - 0.0
17/08:30am 12.4 9.8 6.2 66 3.0 W 9 20 5 11 - - 0.0
17/08:00am 11.8 8.4 5.9 67 2.8 WSW 13 26 7 14 - - 0.0
17/07:30am 11.3 7.8 5.4 67 2.8 WSW 13 28 7 15 - - 0.0
17/07:00am 10.6 7.4 5.2 69 2.5 WSW 11 24 6 13 - - 0.0
17/06:30am 10.0 6.4 5.0 71 2.3 WSW 13 28 7 15 - - 0.0
17/06:00am 9.9 5.9 5.1 72 2.2 WSW 15 28 8 15 - - 0.0
17/05:30am 10.0 6.1 5.2 72 2.2 WSW 15 33 8 18 - - 0.0
17/05:00am 10.1 6.1 5.1 71 2.3 WSW 15 32 8 17 - - 0.0
17/04:30am 10.2 6.3 5.2 71 2.3 WSW 15 30 8 16 - - 0.0
17/04:00am 10.6 5.9 5.2 69 2.5 WSW 19 37 10 20 - - 0.0
17/03:30am 10.8 6.8 4.9 67 2.7 W 15 33 8 18 - - 0.0
17/03:00am 10.9 6.5 5.0 67 2.7 WSW 17 35 9 19 - - 0.0
17/02:30am 11.3 7.0 5.4 67 2.8 WSW 17 41 9 22 - - 0.0
17/02:00am 11.8 7.4 5.0 63 3.2 WSW 17 32 9 17 - - 0.0
17/01:30am 12.3 7.7 5.7 64 3.1 WSW 19 43 10 23 - - 0.0
17/01:00am 12.7 7.5 5.4 61 3.5 WSW 22 50 12 27 - - 0.0
17/12:40am 13.2 6.8 5.1 58 3.8 WSW 28 50 15 27 - - 0.0
17/12:30am 13.3 8.1 5.7 60 3.6 WSW 22 54 12 29 - - 0.0
17/12:00am 13.9 9.6 7.2 64 3.3 WSW 19 39 10 21 - - 0.0

Other Formats:

Comma delimited format used in spreadsheet applications
http://www.bom.gov.au/fwo/IDV60801/IDV60801.94930.axf

JavaScript Object Notation format (JSON) in row-major order
http://www.bom.gov.au/fwo/IDV60801/IDV60801.94930.json